Hlavní strana
METAR-TAF:

METAR-TAF

Letiště :

As-Sawíra, Maroko

zeměpisná šířka: 31-31N, zeměpisná délka: 009-47W, výška: 15 m

Aktuální stav počasí

Zpráva byla vytvořena před 17 minutami, v 15:00 UTC
Severoseverozápadní vítr 7 kt, proměnlivý mezi západním a severním
Teplota 20°C
Vlhkost vzduchu 56%
Tlak 1011 hPa
Viditelnost: 8000 m
Oblačno až skoro zataženo ve výšce 1300 ft

METAR: GMMI 281500Z 33007KT 280V010 8000 BKN013 20/11 Q1011 NOSIG

Čas: 16:17 (15:17 UTC)

Předpověď počasí

Zpráva byla vytvořena před 4 hodinami a 17 minutami, v 11:00 UTC
Předpověď platná od 28 v 12 UTC do 01 v 18 UTC
vítr z různých směrů 2 kt
Viditelnost: 8000 m
Pravděpodobnost 30%
od 28 v 22 UTC do 01 v 08 UTC
Viditelnost: 4000 m
Polojasno ve výšce 1000 ft
kouřmo

TAF: GMMI 281100Z 2812/0118 VRB02KT 8000 NSC PROB30 2822/0108 4000 BR SCT010

Stav a předpovědi počasí z více než 4 000 letišť (zprávy METAR a TAF).

Červené a žluté tečky na mapě představují dostupné meteorologické stanice.

Když kurzor umístíte na tečku, zobrazí se název stanice.

Pak kliknutím zobrazíte stav a předpověď počasí.

Chcete-li změnit mapu, kliknutím na zelené tlačítko se znaménkem +mapu přiblížíte, kliknutím na zelené tlačítko se znaménkem – mapu oddálíte a kliknutím na zelené šipky přejdete na sousední mapy.


METAR-TAF: